Timeline UpdatesTrip UpdatesNews PostsPvt Posts♥♥Travel TipsAdmin PostsConv PostsFollowed PostsChat RequestsBlog PostsPNR Posts

Disclaimer
Search
 
 
Wed Oct 22, 2014 08:42:51 ISTHomeTrainsΣChainsAtlasPNRForumGalleryNewsFAQTripsMembersLoginFeedback
No Recent News for this Train
Other Trains in the News **new
Latest...
⇐ Return Journey: Train# 59207

59208/Okha - Bhavnagar Passenger

Time-Table HAS CHANGED.
Sep 06 2014 (10:24PM)
Change Departure Station:
Change Arrival Station:
Post a Train Travel TipPost a Train Travel Tip **new
Post a Comment/Question/Picture/VideoPost a Comment/Question/Picture/Video
Pantry/Catering
✕ NO Pantry Car
✕ NO Catering
RSA - Rake Sharing
59267/59268 Bhavnagar-Palitana Passenger
Rake/Coach Composition
Eng.. GEN..GEN..GEN..S2..S1..GEN..GEN..GEN..SLR
Loco
RTM WDM 3A.
News    PNR    Forum    Time-Table    Availability    Fare Chart    Map    Arr/Dep History    Trips    Gallery    ΣChains    X/O    Timeline    
Travel Time: 6h 49m    28 halts    Distance: 281 km    Avg Speed: 41 km/hr
Type: Passenger
Zone: WR/Western
Departs @ 14:45 (Avg 1m late)
Platform# 1
SMTWTFS
Okha/OKHA 
Arrives @ 21:34 (Avg 27m late)
Platform# ???
SMTWTFS
Sindhawadar/SDD 

28 halts. 31 intermediate Stations between Okha and Sindhawadar

Show ALL intermediate Stations  Show Old Time-Table

#TrkCodeStation NameX/OArrivesAvgDepartsAvgHaltPFDay#KmSpeedElevZoneAddress
1|--|OKHAOkha (3)»  -14:45+1110.0715mWROkha, Gujarat
2|--|MTHPMithapur  14:54 14:53-14:55-1 2m--19.5253mWRJamnagar, Gujarat
3|--|BMRNBhimranaX  15:02+515:03+151m--112.4376mWRBhimrana, Gujarat
4|--|VVAVarvala  15:22 15:21-15:23-1 2m--123.66014mWRJamnagar, Gujarat
5|--|DWKDwarka (2)X  15:28+915:30+142m2128.61714mWRDwarka, Gujarat
6|--|GRJAGorinja  15:45 15:44+1915:46+221 2m--132.5635mWRKhambhalia-Dwarka (SH 6), Gujarat
7|--|OKDOkha MadhiX  16:04 16:03+1816:05+221 2m--150.5305mWRNH 8E, Gujarat
8|--|KRGAKuranga  16:23 16:22-16:24-1 2m--158.87712mWRJamnagar, Gujarat
9|--|BHTABhatiya  16:34 16:33+1116:35+111 2m--170.45034mWRNational Highway 8E, Gujarat
10|--|BPKABhopalka  16:48 16:47+1316:49+131 2m--180.47746mWRJamnagar, Gujarat
11|--|BHTLBhatel  17:01 17:00+1917:02+181 2m--194.66535mWRJamnagar, Gujarat
12|--|VQDViramdad  17:13 17:12-17:14-1 2m--1105.34949mWRKhambhalia-Dwarka (SH 6), Gujarat
13|--|KMBLKhambhalia  17:23+1517:25+152m11112.76749mWRKhambhalia, Gujarat
14|--|SYQSinhanX  17:33 17:32-17:34-1 2m--1120.56250mWRSH 6, Gujarat
15|--|MDPRModpur  17:44 17:43+2017:45+201 2m--1129.85947mWRKhambhalia-Lalpur, Gujarat
16|--|KNLSKanalus JunctionX  17:57 17:56+2217:58+231 2m--1140.64436mWRJamnagar, Gujarat
17|--|PPLIPipli  18:06 18:05+2418:07+241 2m--1145.75730mWRJamnagar, Gujarat
18|--|LKBLLakhabawal  18:18 18:17+2418:19+281 2m--1155.25521mWRJamnagar, Gujarat
19|--|JAMJamnagar (2)  18:32+1818:37+185m11167.04314mWRJamnagar, Gujarat
20|--|HAPAHapa (3)  18:49+2318:54+285m31175.75916mWRJamnagar, Gujarat
21|--|ALBAlia Bada  19:05 19:04+3719:06+361 2m--1185.66427mWRJamnagar, Gujarat
22|--|WTJJam Wanthali  19:18 19:17+3719:19+381 2m--1197.33852mWRRanuja Village Rd, Gujarat
23|--|JALDJaliya DevaniX  19:31+3619:33+372m--1204.93650mWRRanuja Village Rd, Gujarat
24|--|HMHadmatiya Junction  19:47 19:46+3219:48+311 2m--1212.84870mWRHadmatiya Junction Railway Station, Gujarat
25|--|CXChanolX  19:57+3119:59+322m--1219.93489mWRState Highway 25, Gujarat
26|--|PDHPadadhari  20:12 20:11+2420:13+241 2m--1226.86571mWRPaddhari, Gujarat
27|--|KHDIKhanderi  20:27 20:26+2420:28+241 2m--1240.830111mWRRajkot, Gujarat
28|--|RJTRajkot Junction (5)X  20:50+821:00+910m11251.636128mWRRajkot, Gujarat
29|--|KHCKhorana  21:19 21:18+2421:20+251 2m--1262.379131mWRState Highway 113, Gujarat
30|--|SDDSindhawadar•X  21:35 21:34+2721:36+311 2m--1280.840105mWRSindhavadar, Gujarat
31|--|WKRCWankaner City  21:52-21:53-1m--1291.41380mWRWankaner, Gujarat
32|--|WKRWankaner Junction (4)X  22:02+3422:04 22:12+452 10m--1293.35387mWRWankaner, Gujarat
33|--|DLDaladi  22:27 22:26+5222:28+531 2m--1305.842115mWRDaladi, Gujarat
34|--|THANThan Junction (3)X  22:48+4322:50+482m11319.952138mWRThangadh, Gujarat
35|--|VDVagdiya  23:03 23:02+5623:04+591 2m--1330.355149mWRState Highway 113, Gujarat
36|--|RARamparda  23:12 23:11+1:0023:13+1:131 2m--1336.761141mWRSurendranagar, Gujarat
37|--|MOLMuli RoadX  23:22+1:1323:24+1:172m11345.940108mWRSurendranagar, Gujarat
38|--|DXRDigsar  23:37 23:36+1:1823:38+1:211 2m--1353.98100mWRState Highway 17, Gujarat
39!=-|SUNRSurendranagar Junction (4)X  01:15+1001:55+1440m32367.64372mWRSurendra Nagar, Gujarat
40|--|SRGTSurendranagar Gate (1)  02:01 01:58-02:02 02:00-1 2m12369.84271mWRSurendranagar, Gujarat
41|--|JVNJorawarnagar Junction (1)  02:06 02:04-02:07 02:06-1 2m12372.54369mWRSurendra Nagar, Gujarat
42|--|WCWadhwan City  02:13 02:11+2602:14 02:13+251 2m--2376.18167mWRSurendranagar, Gujarat
43|--|LMLimbdi (1)  02:30 02:28+2802:31 02:30+271 2m12396.46751mWRLimbdi, Gujarat
44|--|CDAChuda  02:41 02:39+2802:42 02:41+311 2m--2406.57563mWRState Highway 38, Gujarat
45|--|RURRanpur  02:56 02:54+3302:57 02:56+321 2m--2422.87261mWRRanpur, Gujarat
46|--|KDIKundli  03:07 03:05+3303:08 03:07+351 2m--2433.55786mWRState Highway 38, Gujarat
47|--|BTDBotad Junction (5)  03:20 03:19+2703:22 03:21+282m--2445.07496mWRBotad, Gujarat
48|--|LTDLathidad  03:32 03:30+4103:33 03:32+401 2m--2456.07568mWRTajpar Rd, Gujarat
49|--|NGANingala Junction  03:41 03:38+3503:42 03:40+341 2m--2463.57557mWRState Highway 117, Gujarat
50|--|ALMRAlampur  03:49 03:46+4003:50 03:48+401 2m--2471.05059mWRState Highway 31, Gujarat
51|--|UJUjalvav  03:58 03:56+4003:59 03:58+391 2m--2477.75164mWRState Highway 31, Gujarat
52|--|DLJDhola Junction  04:11 04:10+2804:12 04:11+281m--2487.99437mWRDhola, Gujarat
53|--|SOASanosra  04:20 04:18+3904:21 04:20+381 2m--2498.96436mWRState Highway 25, Gujarat
54|--|BJUDBajud  04:26 04:24-04:27 04:26-1 2m--2503.26137mWRState Highway 31, Gujarat
55|--|SGDSongadh (1)X  04:33 04:32+3904:34+381 2m12509.33740mWRBhavnagar, Gujarat
56|--|SOJNSihor Gujarat  04:49 04:46+3304:50 04:48+321 2m--2516.85342mWRShihor, Gujarat
57|--|KDMRKodiyar Mandir  04:57 04:54+3204:58 04:56+311 2m12522.02192mWRSH 21, Gujarat
58|--|VTJVartejX  05:12 05:11+1605:13+181 2m--2527.33124mWRBhavnagar, Gujarat
59|--|BVPBhavnagar Para  05:28 05:27+1905:29+191 2m--2534.5813mWRBhavnagar, Gujarat
60|--|BVCBhavnagar Terminus (2)  05:50+0-12537.2-11mWRBhavnagar, Gujarat
Scroll to Top
Scroll to Bottom